M/V Hera — V7UA5 — position and weather

sailwx.info

Track history (hours):
 
Tides and Currents Weather Stations Pressure Air Temp Water Temp Dewpoint Dewpoint Depression Visibility Wind Speed Wind Dir Waves Ship Positions

M/V Hera

Last reported at 2017-Dec-18 03:47 UTC. Time now 2017-Dec-18 05:26 UTC.
Position N 51°27' E 002°37'.

Length 175 m; draft 6.3 m.

Type: Cargo ship. MMSI: 538003917.

Date/timePositionNaut miles runAvg speedWind from/ knotsBaromVisibWave heightAir tempDewpointWater temp
2017-Dec-18 03:47N 51°27' E 002°37'0 0.3
2017-Dec-18 03:26N 51°27' E 002°37'0 0.1
2017-Dec-18 02:25N 51°27' E 002°38'1 1.6
2017-Dec-18 01:50N 51°28' E 002°38'32211.4
2017-Dec-16 21:37N 56°11' E 006°59'212.7
2017-Dec-16 21:29N 56°12' E 007°00'612.7
2017-Dec-16 21:00N 56°17' E 007°07'612.8
2017-Dec-16 20:30N 56°23' E 007°13'14411.9
2017-Dec-16 08:25N 57°55' E 010°38'512.2
2017-Dec-16 08:00N 57°54' E 010°47'611.7
2017-Dec-16 07:30N 57°51' E 010°57'612.3
2017-Dec-16 07:01N 57°46' E 011°03'612.1
2017-Dec-16 06:30N 57°41' E 011°10'612.3
2017-Dec-16 06:01N 57°36' E 011°16'612.7
2017-Dec-16 05:30N 57°31' E 011°23'612.6
2017-Dec-16 05:01N 57°25' E 011°29'612.6
2017-Dec-16 04:31N 57°19' E 011°33'612.5
2017-Dec-16 04:01N 57°13' E 011°36'612.8
2017-Dec-16 03:31N 57°07' E 011°40'11511.1
2017-Dec-15 17:07N 55°14' E 011°06'112.5
2017-Dec-15 17:00N 55°12' E 011°06'612.4
2017-Dec-15 16:30N 55°06' E 011°03'612.8
2017-Dec-15 16:00N 55°00' E 011°01'612.6
2017-Dec-15 15:30N 54°56' E 010°53'612.1
2017-Dec-15 15:00N 54°50' E 010°50'612.0
2017-Dec-15 14:30N 54°44' E 010°47'4 8.9
2017-Dec-15 14:01N 54°40' E 010°48'611.1
2017-Dec-15 13:30N 54°37' E 010°56'611.4
2017-Dec-15 13:00N 54°36' E 011°06'611.5
2017-Dec-15 12:30N 54°35' E 011°15'611.8
2017-Dec-15 12:00N 54°32' E 011°25'611.8
2017-Dec-15 11:30N 54°30' E 011°34'612.2
2017-Dec-15 11:00N 54°27' E 011°43'612.0
2017-Dec-15 10:30N 54°26' E 011°54'78 7.5
2017-Dec-15 00:06N 55°02' E 013°53'51 8.7
2017-Dec-14 18:17N 55°34' E 015°02'3 9.6
2017-Dec-14 17:58N 55°35' E 015°07'4 9.3
2017-Dec-14 17:30N 55°37' E 015°14'5 9.0
2017-Dec-14 17:00N 55°39' E 015°21'4 9.0
2017-Dec-14 16:30N 55°40' E 015°28'4 8.9
2017-Dec-14 16:00N 55°42' E 015°36'8 8.3
2017-Dec-14 15:00N 55°43' E 015°51'4 8.4
2017-Dec-14 14:30N 55°44' E 015°58'4 7.6
2017-Dec-14 14:00N 55°45' E 016°04'4 7.5
2017-Dec-14 13:30N 55°46' E 016°11'4 7.8
2017-Dec-14 13:00N 55°47' E 016°17'4 7.9
2017-Dec-14 12:30N 55°48' E 016°24'4 8.6
2017-Dec-14 12:00N 55°49' E 016°32'344 9.6
2017-Dec-13 00:02N 59°46' E 024°18'012.0
2017-Dec-13 00:00N 59°46' E 024°19'612.1
2017-Dec-12 23:30N 59°48' E 024°30'611.8
2017-Dec-12 23:00N 59°49' E 024°42'611.8
2017-Dec-12 22:30N 59°50' E 024°53'611.7
2017-Dec-12 22:00N 59°51' E 025°05'611.4
2017-Dec-12 21:30N 59°52' E 025°16'611.3
2017-Dec-12 21:00N 59°53' E 025°27'611.2
2017-Dec-12 20:30N 59°54' E 025°38'1811.7
2017-Dec-12 18:59N 59°59' E 026°12'612.2
2017-Dec-12 18:31N 60°00' E 026°23'611.3
2017-Dec-12 18:01N 60°02' E 026°34'611.1
2017-Dec-12 17:30N 60°01' E 026°45'612.1
2017-Dec-12 17:00N 59°60' E 026°57'510.5
2017-Dec-12 16:31N 60°01' E 027°08'510.5
2017-Dec-12 16:00N 60°04' E 027°17'510.6
2017-Dec-12 15:30N 60°06' E 027°26'510.9
2017-Dec-12 15:00N 60°09' E 027°35'611.1
2017-Dec-12 14:30N 60°12' E 027°45'612.1
2017-Dec-12 14:00N 60°11' E 027°56'612.3
2017-Dec-12 13:30N 60°09' E 028°08'612.1
2017-Dec-12 13:00N 60°07' E 028°20'612.4
2017-Dec-12 12:30N 60°04' E 028°30'510.7
2017-Dec-12 12:00N 59°59' E 028°36'4 8.3
2017-Dec-12 11:30N 59°55' E 028°33'510.7
2017-Dec-12 11:00N 59°51' E 028°27'611.6
2017-Dec-12 10:30N 59°45' E 028°25'  
Track history (hours):
 
Tides and Currents Weather Stations Pressure Air Temp Water Temp Dewpoint Dewpoint Depression Visibility Wind Speed Wind Dir Waves Ship Positions

M/V Hera

Last reported at 2017-Dec-18 03:47 UTC. Time now 2017-Dec-18 05:26 UTC.
Position N 51°27' E 002°37'.

Length 175 m; draft 6.3 m.

Type: Cargo ship. MMSI: 538003917.

Date/timePositionNaut miles runAvg speedWind from/ knotsBaromVisibWave heightAir tempDewpointWater temp
2017-Dec-18 03:47N 51°27' E 002°37'0 0.3
2017-Dec-18 03:26N 51°27' E 002°37'0 0.1
2017-Dec-18 02:25N 51°27' E 002°38'1 1.6
2017-Dec-18 01:50N 51°28' E 002°38'32211.4
2017-Dec-16 21:37N 56°11' E 006°59'212.7
2017-Dec-16 21:29N 56°12' E 007°00'612.7
2017-Dec-16 21:00N 56°17' E 007°07'612.8
2017-Dec-16 20:30N 56°23' E 007°13'14411.9
2017-Dec-16 08:25N 57°55' E 010°38'512.2
2017-Dec-16 08:00N 57°54' E 010°47'611.7
2017-Dec-16 07:30N 57°51' E 010°57'612.3
2017-Dec-16 07:01N 57°46' E 011°03'612.1
2017-Dec-16 06:30N 57°41' E 011°10'612.3
2017-Dec-16 06:01N 57°36' E 011°16'612.7
2017-Dec-16 05:30N 57°31' E 011°23'612.6
2017-Dec-16 05:01N 57°25' E 011°29'612.6
2017-Dec-16 04:31N 57°19' E 011°33'612.5
2017-Dec-16 04:01N 57°13' E 011°36'612.8
2017-Dec-16 03:31N 57°07' E 011°40'11511.1
2017-Dec-15 17:07N 55°14' E 011°06'112.5
2017-Dec-15 17:00N 55°12' E 011°06'612.4
2017-Dec-15 16:30N 55°06' E 011°03'612.8
2017-Dec-15 16:00N 55°00' E 011°01'612.6
2017-Dec-15 15:30N 54°56' E 010°53'612.1
2017-Dec-15 15:00N 54°50' E 010°50'612.0
2017-Dec-15 14:30N 54°44' E 010°47'4 8.9
2017-Dec-15 14:01N 54°40' E 010°48'611.1
2017-Dec-15 13:30N 54°37' E 010°56'611.4
2017-Dec-15 13:00N 54°36' E 011°06'611.5
2017-Dec-15 12:30N 54°35' E 011°15'611.8
2017-Dec-15 12:00N 54°32' E 011°25'611.8
2017-Dec-15 11:30N 54°30' E 011°34'612.2
2017-Dec-15 11:00N 54°27' E 011°43'612.0
2017-Dec-15 10:30N 54°26' E 011°54'78 7.5
2017-Dec-15 00:06N 55°02' E 013°53'51 8.7
2017-Dec-14 18:17N 55°34' E 015°02'3 9.6
2017-Dec-14 17:58N 55°35' E 015°07'4 9.3
2017-Dec-14 17:30N 55°37' E 015°14'5 9.0
2017-Dec-14 17:00N 55°39' E 015°21'4 9.0
2017-Dec-14 16:30N 55°40' E 015°28'4 8.9
2017-Dec-14 16:00N 55°42' E 015°36'8 8.3
2017-Dec-14 15:00N 55°43' E 015°51'4 8.4
2017-Dec-14 14:30N 55°44' E 015°58'4 7.6
2017-Dec-14 14:00N 55°45' E 016°04'4 7.5
2017-Dec-14 13:30N 55°46' E 016°11'4 7.8
2017-Dec-14 13:00N 55°47' E 016°17'4 7.9
2017-Dec-14 12:30N 55°48' E 016°24'4 8.6
2017-Dec-14 12:00N 55°49' E 016°32'344 9.6
2017-Dec-13 00:02N 59°46' E 024°18'012.0
2017-Dec-13 00:00N 59°46' E 024°19'612.1
2017-Dec-12 23:30N 59°48' E 024°30'611.8
2017-Dec-12 23:00N 59°49' E 024°42'611.8
2017-Dec-12 22:30N 59°50' E 024°53'611.7
2017-Dec-12 22:00N 59°51' E 025°05'611.4
2017-Dec-12 21:30N 59°52' E 025°16'611.3
2017-Dec-12 21:00N 59°53' E 025°27'611.2
2017-Dec-12 20:30N 59°54' E 025°38'1811.7
2017-Dec-12 18:59N 59°59' E 026°12'612.2
2017-Dec-12 18:31N 60°00' E 026°23'611.3
2017-Dec-12 18:01N 60°02' E 026°34'611.1
2017-Dec-12 17:30N 60°01' E 026°45'612.1
2017-Dec-12 17:00N 59°60' E 026°57'510.5
2017-Dec-12 16:31N 60°01' E 027°08'510.5
2017-Dec-12 16:00N 60°04' E 027°17'510.6
2017-Dec-12 15:30N 60°06' E 027°26'510.9
2017-Dec-12 15:00N 60°09' E 027°35'611.1
2017-Dec-12 14:30N 60°12' E 027°45'612.1
2017-Dec-12 14:00N 60°11' E 027°56'612.3
2017-Dec-12 13:30N 60°09' E 028°08'612.1
2017-Dec-12 13:00N 60°07' E 028°20'612.4
2017-Dec-12 12:30N 60°04' E 028°30'510.7
2017-Dec-12 12:00N 59°59' E 028°36'4 8.3
2017-Dec-12 11:30N 59°55' E 028°33'510.7
2017-Dec-12 11:00N 59°51' E 028°27'611.6
2017-Dec-12 10:30N 59°45' E 028°25'  

Dump ship's entire track history